sensor_id;sensor_type;location;lat;lon;timestamp;P1;durP1;ratioP1;P2;durP2;ratioP2
79361;SDS011;68830;47.566;19.012;2023-12-14T00:02:49;3.85;;;2.88;;
79361;SDS011;68830;47.566;19.012;2023-12-14T00:05:52;2.97;;;2.22;;
79361;SDS011;68830;47.566;19.012;2023-12-14T00:08:54;4.38;;;3.17;;
79361;SDS011;68830;47.566;19.012;2023-12-14T00:11:56;3.95;;;3.55;;
79361;SDS011;68830;47.566;19.012;2023-12-14T00:14:59;3.65;;;3.08;;
79361;SDS011;68830;47.566;19.012;2023-12-14T00:18:02;3.08;;;2.60;;
79361;SDS011;68830;47.566;19.012;2023-12-14T00:21:04;4.63;;;3.83;;
79361;SDS011;68830;47.566;19.012;2023-12-14T00:24:07;4.00;;;3.58;;
79361;SDS011;68830;47.566;19.012;2023-12-14T00:27:09;4.18;;;3.22;;
79361;SDS011;68830;47.566;19.012;2023-12-14T00:30:12;5.38;;;3.95;;
79361;SDS011;68830;47.566;19.012;2023-12-14T00:33:15;5.18;;;3.78;;
79361;SDS011;68830;47.566;19.012;2023-12-14T00:36:17;4.60;;;3.50;;
79361;SDS011;68830;47.566;19.012;2023-12-14T00:39:20;6.22;;;3.78;;
79361;SDS011;68830;47.566;19.012;2023-12-14T00:42:22;6.35;;;4.40;;
79361;SDS011;68830;47.566;19.012;2023-12-14T00:45:25;6.78;;;4.13;;
79361;SDS011;68830;47.566;19.012;2023-12-14T00:48:27;6.53;;;3.97;;
79361;SDS011;68830;47.566;19.012;2023-12-14T00:51:29;5.45;;;3.33;;
79361;SDS011;68830;47.566;19.012;2023-12-14T00:54:31;4.45;;;3.92;;
79361;SDS011;68830;47.566;19.012;2023-12-14T00:57:33;4.65;;;3.95;;
79361;SDS011;68830;47.566;19.012;2023-12-14T01:00:37;6.10;;;4.13;;
79361;SDS011;68830;47.566;19.012;2023-12-14T01:03:39;5.43;;;4.40;;
79361;SDS011;68830;47.566;19.012;2023-12-14T01:06:42;5.07;;;3.88;;
79361;SDS011;68830;47.566;19.012;2023-12-14T01:09:44;5.90;;;4.80;;
79361;SDS011;68830;47.566;19.012;2023-12-14T01:12:46;7.00;;;4.07;;
79361;SDS011;68830;47.566;19.012;2023-12-14T01:15:49;5.93;;;4.30;;
79361;SDS011;68830;47.566;19.012;2023-12-14T01:18:52;4.68;;;3.63;;
79361;SDS011;68830;47.566;19.012;2023-12-14T01:21:54;7.90;;;4.93;;
79361;SDS011;68830;47.566;19.012;2023-12-14T01:24:57;5.50;;;4.28;;
79361;SDS011;68830;47.566;19.012;2023-12-14T01:27:58;8.88;;;5.10;;
79361;SDS011;68830;47.566;19.012;2023-12-14T01:31:03;6.75;;;5.20;;
79361;SDS011;68830;47.566;19.012;2023-12-14T01:34:06;7.53;;;5.72;;
79361;SDS011;68830;47.566;19.012;2023-12-14T01:37:08;10.32;;;6.35;;
79361;SDS011;68830;47.566;19.012;2023-12-14T01:40:11;10.43;;;6.47;;
79361;SDS011;68830;47.566;19.012;2023-12-14T01:43:14;10.98;;;6.70;;
79361;SDS011;68830;47.566;19.012;2023-12-14T01:46:17;9.65;;;6.40;;
79361;SDS011;68830;47.566;19.012;2023-12-14T01:49:20;10.48;;;7.35;;
79361;SDS011;68830;47.566;19.012;2023-12-14T01:52:22;11.32;;;7.65;;
79361;SDS011;68830;47.566;19.012;2023-12-14T01:55:25;11.00;;;7.55;;
79361;SDS011;68830;47.566;19.012;2023-12-14T01:58:28;10.45;;;6.97;;
79361;SDS011;68830;47.566;19.012;2023-12-14T02:01:33;7.85;;;6.13;;
79361;SDS011;68830;47.566;19.012;2023-12-14T02:04:40;9.40;;;6.40;;
79361;SDS011;68830;47.566;19.012;2023-12-14T02:07:42;7.38;;;6.05;;
79361;SDS011;68830;47.566;19.012;2023-12-14T02:10:44;10.93;;;7.25;;
79361;SDS011;68830;47.566;19.012;2023-12-14T02:13:47;8.82;;;6.22;;
79361;SDS011;68830;47.566;19.012;2023-12-14T02:16:51;9.48;;;6.82;;
79361;SDS011;68830;47.566;19.012;2023-12-14T02:19:53;9.48;;;6.75;;
79361;SDS011;68830;47.566;19.012;2023-12-14T02:22:57;10.00;;;6.55;;
79361;SDS011;68830;47.566;19.012;2023-12-14T02:26:00;10.23;;;7.32;;
79361;SDS011;68830;47.566;19.012;2023-12-14T02:29:02;10.25;;;6.97;;
79361;SDS011;68830;47.566;19.012;2023-12-14T02:32:05;9.15;;;7.03;;
79361;SDS011;68830;47.566;19.012;2023-12-14T02:35:07;8.93;;;6.50;;
79361;SDS011;68830;47.566;19.012;2023-12-14T02:38:11;10.18;;;7.55;;
79361;SDS011;68830;47.566;19.012;2023-12-14T02:41:13;8.82;;;7.15;;
79361;SDS011;68830;47.566;19.012;2023-12-14T02:44:15;10.77;;;7.00;;
79361;SDS011;68830;47.566;19.012;2023-12-14T02:47:18;10.88;;;7.90;;
79361;SDS011;68830;47.566;19.012;2023-12-14T02:50:20;10.32;;;7.35;;
79361;SDS011;68830;47.566;19.012;2023-12-14T02:53:24;11.80;;;7.28;;
79361;SDS011;68830;47.566;19.012;2023-12-14T02:56:26;11.32;;;7.10;;
79361;SDS011;68830;47.566;19.012;2023-12-14T02:59:28;14.63;;;7.80;;
79361;SDS011;68830;47.566;19.012;2023-12-14T03:02:30;11.45;;;7.60;;
79361;SDS011;68830;47.566;19.012;2023-12-14T03:05:32;11.70;;;8.63;;
79361;SDS011;68830;47.566;19.012;2023-12-14T03:08:37;16.08;;;9.60;;
79361;SDS011;68830;47.566;19.012;2023-12-14T03:11:39;15.63;;;9.15;;
79361;SDS011;68830;47.566;19.012;2023-12-14T03:14:41;14.98;;;9.45;;
79361;SDS011;68830;47.566;19.012;2023-12-14T03:17:43;12.50;;;7.95;;
79361;SDS011;68830;47.566;19.012;2023-12-14T03:20:46;13.32;;;8.25;;
79361;SDS011;68830;47.566;19.012;2023-12-14T03:23:50;14.40;;;8.90;;
79361;SDS011;68830;47.566;19.012;2023-12-14T03:26:52;13.00;;;8.52;;
79361;SDS011;68830;47.566;19.012;2023-12-14T03:29:54;12.45;;;8.30;;
79361;SDS011;68830;47.566;19.012;2023-12-14T03:32:56;13.48;;;8.20;;
79361;SDS011;68830;47.566;19.012;2023-12-14T03:35:58;11.85;;;7.80;;
79361;SDS011;68830;47.566;19.012;2023-12-14T03:39:02;11.55;;;7.35;;
79361;SDS011;68830;47.566;19.012;2023-12-14T03:42:04;12.43;;;8.07;;
79361;SDS011;68830;47.566;19.012;2023-12-14T03:45:06;12.88;;;6.90;;
79361;SDS011;68830;47.566;19.012;2023-12-14T03:48:09;12.45;;;8.25;;
79361;SDS011;68830;47.566;19.012;2023-12-14T03:51:11;9.02;;;6.22;;
79361;SDS011;68830;47.566;19.012;2023-12-14T03:54:14;9.63;;;6.70;;
79361;SDS011;68830;47.566;19.012;2023-12-14T03:57:17;10.35;;;7.25;;
79361;SDS011;68830;47.566;19.012;2023-12-14T04:00:19;10.38;;;7.65;;
79361;SDS011;68830;47.566;19.012;2023-12-14T04:03:22;9.02;;;6.82;;
79361;SDS011;68830;47.566;19.012;2023-12-14T04:06:24;12.43;;;8.35;;
79361;SDS011;68830;47.566;19.012;2023-12-14T04:09:27;12.25;;;8.05;;
79361;SDS011;68830;47.566;19.012;2023-12-14T04:12:30;14.35;;;9.18;;
79361;SDS011;68830;47.566;19.012;2023-12-14T04:15:32;11.85;;;7.97;;
79361;SDS011;68830;47.566;19.012;2023-12-14T04:18:35;12.93;;;8.15;;
79361;SDS011;68830;47.566;19.012;2023-12-14T04:21:39;10.88;;;7.53;;
79361;SDS011;68830;47.566;19.012;2023-12-14T04:24:43;12.23;;;7.53;;
79361;SDS011;68830;47.566;19.012;2023-12-14T04:27:44;12.02;;;7.00;;
79361;SDS011;68830;47.566;19.012;2023-12-14T04:30:47;9.30;;;6.97;;
79361;SDS011;68830;47.566;19.012;2023-12-14T04:33:49;10.90;;;7.65;;
79361;SDS011;68830;47.566;19.012;2023-12-14T04:36:52;12.88;;;8.20;;
79361;SDS011;68830;47.566;19.012;2023-12-14T04:40:00;11.43;;;8.30;;
79361;SDS011;68830;47.566;19.012;2023-12-14T04:43:02;12.35;;;7.85;;
79361;SDS011;68830;47.566;19.012;2023-12-14T04:46:04;13.77;;;8.70;;
79361;SDS011;68830;47.566;19.012;2023-12-14T04:49:07;16.08;;;10.20;;
79361;SDS011;68830;47.566;19.012;2023-12-14T04:52:10;12.82;;;9.05;;
79361;SDS011;68830;47.566;19.012;2023-12-14T04:55:13;15.23;;;8.60;;
79361;SDS011;68830;47.566;19.012;2023-12-14T04:58:15;12.88;;;8.20;;
79361;SDS011;68830;47.566;19.012;2023-12-14T05:01:18;14.98;;;9.32;;
79361;SDS011;68830;47.566;19.012;2023-12-14T05:04:20;17.88;;;10.90;;
79361;SDS011;68830;47.566;19.012;2023-12-14T05:07:22;16.48;;;10.05;;
79361;SDS011;68830;47.566;19.012;2023-12-14T05:10:26;17.58;;;10.52;;
79361;SDS011;68830;47.566;19.012;2023-12-14T05:13:28;13.68;;;10.32;;
79361;SDS011;68830;47.566;19.012;2023-12-14T05:16:31;18.60;;;10.18;;
79361;SDS011;68830;47.566;19.012;2023-12-14T05:19:34;17.80;;;10.75;;
79361;SDS011;68830;47.566;19.012;2023-12-14T05:22:37;17.42;;;10.32;;
79361;SDS011;68830;47.566;19.012;2023-12-14T05:25:42;15.90;;;10.65;;
79361;SDS011;68830;47.566;19.012;2023-12-14T05:28:45;12.52;;;8.73;;
79361;SDS011;68830;47.566;19.012;2023-12-14T05:31:48;16.90;;;11.65;;
79361;SDS011;68830;47.566;19.012;2023-12-14T05:34:50;15.43;;;9.00;;
79361;SDS011;68830;47.566;19.012;2023-12-14T05:37:52;18.58;;;10.07;;
79361;SDS011;68830;47.566;19.012;2023-12-14T05:40:55;15.35;;;9.95;;
79361;SDS011;68830;47.566;19.012;2023-12-14T05:43:58;19.23;;;12.25;;
79361;SDS011;68830;47.566;19.012;2023-12-14T05:47:00;18.55;;;11.18;;
79361;SDS011;68830;47.566;19.012;2023-12-14T05:50:04;18.77;;;11.55;;
79361;SDS011;68830;47.566;19.012;2023-12-14T05:53:06;16.67;;;11.48;;
79361;SDS011;68830;47.566;19.012;2023-12-14T05:56:10;17.52;;;11.77;;
79361;SDS011;68830;47.566;19.012;2023-12-14T05:59:12;18.30;;;11.80;;
79361;SDS011;68830;47.566;19.012;2023-12-14T06:02:14;16.42;;;11.38;;
79361;SDS011;68830;47.566;19.012;2023-12-14T06:05:17;20.67;;;11.80;;
79361;SDS011;68830;47.566;19.012;2023-12-14T06:08:19;17.65;;;11.80;;
79361;SDS011;68830;47.566;19.012;2023-12-14T06:11:22;14.63;;;9.85;;
79361;SDS011;68830;47.566;19.012;2023-12-14T06:14:25;16.40;;;11.38;;
79361;SDS011;68830;47.566;19.012;2023-12-14T06:17:27;13.65;;;10.13;;
79361;SDS011;68830;47.566;19.012;2023-12-14T06:20:31;16.70;;;11.15;;
79361;SDS011;68830;47.566;19.012;2023-12-14T06:23:34;16.17;;;10.80;;
79361;SDS011;68830;47.566;19.012;2023-12-14T06:26:41;16.52;;;10.68;;
79361;SDS011;68830;47.566;19.012;2023-12-14T06:29:45;14.05;;;9.95;;
79361;SDS011;68830;47.566;19.012;2023-12-14T06:32:47;17.55;;;12.35;;
79361;SDS011;68830;47.566;19.012;2023-12-14T06:35:49;15.13;;;11.00;;
79361;SDS011;68830;47.566;19.012;2023-12-14T06:38:51;15.30;;;10.25;;
79361;SDS011;68830;47.566;19.012;2023-12-14T06:41:55;13.95;;;10.60;;
79361;SDS011;68830;47.566;19.012;2023-12-14T06:44:58;12.88;;;10.40;;
79361;SDS011;68830;47.566;19.012;2023-12-14T06:48:02;17.83;;;10.38;;
79361;SDS011;68830;47.566;19.012;2023-12-14T06:51:05;14.43;;;9.23;;
79361;SDS011;68830;47.566;19.012;2023-12-14T06:54:07;16.30;;;10.02;;
79361;SDS011;68830;47.566;19.012;2023-12-14T06:57:10;15.60;;;9.88;;
79361;SDS011;68830;47.566;19.012;2023-12-14T07:00:13;14.00;;;10.68;;
79361;SDS011;68830;47.566;19.012;2023-12-14T07:03:17;21.00;;;18.15;;
79361;SDS011;68830;47.566;19.012;2023-12-14T07:06:19;25.75;;;22.98;;
79361;SDS011;68830;47.566;19.012;2023-12-14T07:09:22;31.52;;;25.55;;
79361;SDS011;68830;47.566;19.012;2023-12-14T07:12:26;31.73;;;25.63;;
79361;SDS011;68830;47.566;19.012;2023-12-14T07:15:28;32.97;;;26.27;;
79361;SDS011;68830;47.566;19.012;2023-12-14T07:18:31;32.13;;;28.55;;
79361;SDS011;68830;47.566;19.012;2023-12-14T07:21:33;32.47;;;28.95;;
79361;SDS011;68830;47.566;19.012;2023-12-14T07:24:35;31.27;;;27.52;;
79361;SDS011;68830;47.566;19.012;2023-12-14T07:27:50;33.40;;;29.58;;
79361;SDS011;68830;47.566;19.012;2023-12-14T07:30:53;14.70;;;9.27;;
79361;SDS011;68830;47.566;19.012;2023-12-14T07:33:55;23.52;;;13.40;;
79361;SDS011;68830;47.566;19.012;2023-12-14T07:36:57;18.92;;;12.20;;
79361;SDS011;68830;47.566;19.012;2023-12-14T07:40:00;22.98;;;13.38;;
79361;SDS011;68830;47.566;19.012;2023-12-14T07:43:03;20.35;;;13.75;;
79361;SDS011;68830;47.566;19.012;2023-12-14T07:46:05;17.08;;;12.40;;
79361;SDS011;68830;47.566;19.012;2023-12-14T07:49:08;18.42;;;12.57;;
79361;SDS011;68830;47.566;19.012;2023-12-14T07:52:10;16.35;;;11.93;;
79361;SDS011;68830;47.566;19.012;2023-12-14T07:55:13;15.25;;;12.02;;
79361;SDS011;68830;47.566;19.012;2023-12-14T07:58:16;15.18;;;10.52;;
79361;SDS011;68830;47.566;19.012;2023-12-14T08:01:20;18.30;;;12.75;;
79361;SDS011;68830;47.566;19.012;2023-12-14T08:04:22;20.38;;;16.50;;
79361;SDS011;68830;47.566;19.012;2023-12-14T08:07:25;25.63;;;19.80;;
79361;SDS011;68830;47.566;19.012;2023-12-14T08:10:30;44.55;;;29.90;;
79361;SDS011;68830;47.566;19.012;2023-12-14T08:13:34;25.30;;;20.73;;
79361;SDS011;68830;47.566;19.012;2023-12-14T08:16:38;24.50;;;21.35;;
79361;SDS011;68830;47.566;19.012;2023-12-14T08:19:40;28.92;;;23.90;;
79361;SDS011;68830;47.566;19.012;2023-12-14T08:22:43;29.67;;;24.27;;
79361;SDS011;68830;47.566;19.012;2023-12-14T08:25:47;27.60;;;20.42;;
79361;SDS011;68830;47.566;19.012;2023-12-14T08:28:52;29.75;;;25.48;;
79361;SDS011;68830;47.566;19.012;2023-12-14T08:32:05;24.98;;;20.92;;
79361;SDS011;68830;47.566;19.012;2023-12-14T08:35:07;24.27;;;19.88;;
79361;SDS011;68830;47.566;19.012;2023-12-14T08:38:11;26.55;;;20.77;;
79361;SDS011;68830;47.566;19.012;2023-12-14T08:41:13;25.90;;;22.10;;
79361;SDS011;68830;47.566;19.012;2023-12-14T08:44:18;34.05;;;26.55;;
79361;SDS011;68830;47.566;19.012;2023-12-14T08:47:20;24.40;;;19.88;;
79361;SDS011;68830;47.566;19.012;2023-12-14T08:50:22;42.92;;;30.58;;
79361;SDS011;68830;47.566;19.012;2023-12-14T08:53:24;29.23;;;24.05;;
79361;SDS011;68830;47.566;19.012;2023-12-14T08:56:27;25.08;;;19.02;;
79361;SDS011;68830;47.566;19.012;2023-12-14T08:59:31;23.63;;;18.83;;
79361;SDS011;68830;47.566;19.012;2023-12-14T09:02:34;22.50;;;20.05;;
79361;SDS011;68830;47.566;19.012;2023-12-14T09:05:37;31.35;;;25.75;;
79361;SDS011;68830;47.566;19.012;2023-12-14T09:08:44;34.45;;;30.42;;
79361;SDS011;68830;47.566;19.012;2023-12-14T09:11:46;27.30;;;23.10;;
79361;SDS011;68830;47.566;19.012;2023-12-14T09:14:50;21.70;;;18.48;;
79361;SDS011;68830;47.566;19.012;2023-12-14T09:17:52;21.17;;;18.73;;
79361;SDS011;68830;47.566;19.012;2023-12-14T09:20:56;21.50;;;18.05;;
79361;SDS011;68830;47.566;19.012;2023-12-14T09:23:58;18.65;;;16.52;;
79361;SDS011;68830;47.566;19.012;2023-12-14T09:27:00;21.15;;;19.00;;
79361;SDS011;68830;47.566;19.012;2023-12-14T09:30:06;21.05;;;16.98;;
79361;SDS011;68830;47.566;19.012;2023-12-14T09:33:09;17.38;;;15.55;;
79361;SDS011;68830;47.566;19.012;2023-12-14T09:36:11;21.75;;;18.27;;
79361;SDS011;68830;47.566;19.012;2023-12-14T09:39:13;19.60;;;16.60;;
79361;SDS011;68830;47.566;19.012;2023-12-14T09:42:17;17.88;;;15.90;;
79361;SDS011;68830;47.566;19.012;2023-12-14T09:45:27;22.00;;;16.63;;
79361;SDS011;68830;47.566;19.012;2023-12-14T09:48:30;19.10;;;16.92;;
79361;SDS011;68830;47.566;19.012;2023-12-14T09:51:33;19.63;;;16.20;;
79361;SDS011;68830;47.566;19.012;2023-12-14T09:54:35;21.25;;;16.45;;
79361;SDS011;68830;47.566;19.012;2023-12-14T09:57:37;21.63;;;17.58;;
79361;SDS011;68830;47.566;19.012;2023-12-14T10:00:41;19.88;;;16.27;;
79361;SDS011;68830;47.566;19.012;2023-12-14T10:03:44;17.88;;;14.95;;
79361;SDS011;68830;47.566;19.012;2023-12-14T10:06:47;18.65;;;15.77;;
79361;SDS011;68830;47.566;19.012;2023-12-14T10:09:49;20.33;;;17.63;;
79361;SDS011;68830;47.566;19.012;2023-12-14T10:12:52;16.15;;;14.43;;
79361;SDS011;68830;47.566;19.012;2023-12-14T10:15:56;16.08;;;13.65;;
79361;SDS011;68830;47.566;19.012;2023-12-14T10:18:58;17.77;;;13.02;;
79361;SDS011;68830;47.566;19.012;2023-12-14T10:22:02;16.98;;;14.00;;
79361;SDS011;68830;47.566;19.012;2023-12-14T10:25:04;13.77;;;11.55;;
79361;SDS011;68830;47.566;19.012;2023-12-14T10:28:11;14.25;;;12.82;;
79361;SDS011;68830;47.566;19.012;2023-12-14T10:31:16;15.18;;;12.70;;
79361;SDS011;68830;47.566;19.012;2023-12-14T10:34:20;16.15;;;13.35;;
79361;SDS011;68830;47.566;19.012;2023-12-14T10:37:22;15.27;;;13.60;;
79361;SDS011;68830;47.566;19.012;2023-12-14T10:40:27;17.92;;;13.32;;
79361;SDS011;68830;47.566;19.012;2023-12-14T10:43:30;14.63;;;13.18;;
79361;SDS011;68830;47.566;19.012;2023-12-14T10:46:51;17.45;;;14.73;;
79361;SDS011;68830;47.566;19.012;2023-12-14T10:50:00;17.33;;;15.40;;
79361;SDS011;68830;47.566;19.012;2023-12-14T10:53:03;16.95;;;14.55;;
79361;SDS011;68830;47.566;19.012;2023-12-14T10:56:07;19.77;;;15.20;;
79361;SDS011;68830;47.566;19.012;2023-12-14T10:59:14;19.35;;;16.73;;
79361;SDS011;68830;47.566;19.012;2023-12-14T11:02:21;20.23;;;16.90;;
79361;SDS011;68830;47.566;19.012;2023-12-14T11:05:23;17.42;;;15.50;;
79361;SDS011;68830;47.566;19.012;2023-12-14T11:08:33;19.25;;;17.20;;
79361;SDS011;68830;47.566;19.012;2023-12-14T11:11:42;19.20;;;17.20;;
79361;SDS011;68830;47.566;19.012;2023-12-14T11:14:48;21.42;;;17.55;;
79361;SDS011;68830;47.566;19.012;2023-12-14T11:21:23;16.85;;;15.05;;
79361;SDS011;68830;47.566;19.012;2023-12-14T11:24:27;17.77;;;15.88;;
79361;SDS011;68830;47.566;19.012;2023-12-14T11:27:29;19.25;;;16.73;;
79361;SDS011;68830;47.566;19.012;2023-12-14T11:30:32;18.42;;;15.52;;
79361;SDS011;68830;47.566;19.012;2023-12-14T11:33:54;18.45;;;15.65;;
79361;SDS011;68830;47.566;19.012;2023-12-14T11:36:57;19.55;;;15.73;;
79361;SDS011;68830;47.566;19.012;2023-12-14T11:40:00;17.20;;;15.27;;
79361;SDS011;68830;47.566;19.012;2023-12-14T11:43:03;18.88;;;16.80;;
79361;SDS011;68830;47.566;19.012;2023-12-14T11:46:11;19.45;;;16.90;;
79361;SDS011;68830;47.566;19.012;2023-12-14T11:49:15;21.73;;;15.48;;
79361;SDS011;68830;47.566;19.012;2023-12-14T11:52:18;18.58;;;15.55;;
79361;SDS011;68830;47.566;19.012;2023-12-14T11:55:21;18.08;;;15.43;;
79361;SDS011;68830;47.566;19.012;2023-12-14T11:58:24;16.83;;;15.02;;
79361;SDS011;68830;47.566;19.012;2023-12-14T12:01:26;19.63;;;16.05;;
79361;SDS011;68830;47.566;19.012;2023-12-14T12:04:31;18.17;;;15.13;;
79361;SDS011;68830;47.566;19.012;2023-12-14T12:07:34;17.85;;;15.70;;
79361;SDS011;68830;47.566;19.012;2023-12-14T12:10:37;18.08;;;14.85;;
79361;SDS011;68830;47.566;19.012;2023-12-14T12:13:39;18.13;;;14.65;;
79361;SDS011;68830;47.566;19.012;2023-12-14T12:16:42;18.95;;;15.25;;
79361;SDS011;68830;47.566;19.012;2023-12-14T12:19:45;19.85;;;14.02;;
79361;SDS011;68830;47.566;19.012;2023-12-14T12:22:48;17.85;;;15.68;;
79361;SDS011;68830;47.566;19.012;2023-12-14T12:25:50;18.90;;;14.98;;
79361;SDS011;68830;47.566;19.012;2023-12-14T12:28:52;16.52;;;14.93;;
79361;SDS011;68830;47.566;19.012;2023-12-14T12:31:54;17.42;;;15.65;;
79361;SDS011;68830;47.566;19.012;2023-12-14T12:34:58;17.88;;;15.02;;
79361;SDS011;68830;47.566;19.012;2023-12-14T12:38:00;15.75;;;14.15;;
79361;SDS011;68830;47.566;19.012;2023-12-14T12:41:02;17.73;;;15.57;;
79361;SDS011;68830;47.566;19.012;2023-12-14T12:44:04;18.70;;;15.27;;
79361;SDS011;68830;47.566;19.012;2023-12-14T12:47:10;16.75;;;14.95;;
79361;SDS011;68830;47.566;19.012;2023-12-14T12:50:14;17.35;;;15.10;;
79361;SDS011;68830;47.566;19.012;2023-12-14T12:53:18;18.45;;;14.70;;
79361;SDS011;68830;47.566;19.012;2023-12-14T12:56:20;16.08;;;14.25;;
79361;SDS011;68830;47.566;19.012;2023-12-14T12:59:23;18.70;;;16.70;;
79361;SDS011;68830;47.566;19.012;2023-12-14T13:02:25;20.67;;;15.38;;
79361;SDS011;68830;47.566;19.012;2023-12-14T13:05:28;18.35;;;15.52;;
79361;SDS011;68830;47.566;19.012;2023-12-14T13:08:30;17.13;;;14.93;;
79361;SDS011;68830;47.566;19.012;2023-12-14T13:11:32;17.40;;;15.52;;
79361;SDS011;68830;47.566;19.012;2023-12-14T13:14:35;19.38;;;15.50;;
79361;SDS011;68830;47.566;19.012;2023-12-14T13:17:37;16.83;;;14.68;;
79361;SDS011;68830;47.566;19.012;2023-12-14T13:20:43;18.83;;;16.50;;
79361;SDS011;68830;47.566;19.012;2023-12-14T13:23:48;19.90;;;15.85;;
79361;SDS011;68830;47.566;19.012;2023-12-14T13:26:52;17.58;;;15.27;;
79361;SDS011;68830;47.566;19.012;2023-12-14T13:29:55;17.00;;;15.25;;
79361;SDS011;68830;47.566;19.012;2023-12-14T13:32:57;17.60;;;15.73;;
79361;SDS011;68830;47.566;19.012;2023-12-14T13:36:00;15.70;;;13.27;;
79361;SDS011;68830;47.566;19.012;2023-12-14T13:39:03;15.35;;;13.82;;
79361;SDS011;68830;47.566;19.012;2023-12-14T13:42:05;19.73;;;14.20;;
79361;SDS011;68830;47.566;19.012;2023-12-14T13:45:11;14.07;;;12.77;;
79361;SDS011;68830;47.566;19.012;2023-12-14T13:48:13;15.10;;;13.45;;
79361;SDS011;68830;47.566;19.012;2023-12-14T13:51:16;15.45;;;13.70;;
79361;SDS011;68830;47.566;19.012;2023-12-14T13:54:18;13.60;;;12.02;;
79361;SDS011;68830;47.566;19.012;2023-12-14T13:57:20;17.35;;;14.23;;
79361;SDS011;68830;47.566;19.012;2023-12-14T14:00:24;14.40;;;12.90;;
79361;SDS011;68830;47.566;19.012;2023-12-14T14:03:26;16.23;;;12.35;;
79361;SDS011;68830;47.566;19.012;2023-12-14T14:06:31;16.40;;;13.60;;
79361;SDS011;68830;47.566;19.012;2023-12-14T14:09:33;13.15;;;11.50;;
79361;SDS011;68830;47.566;19.012;2023-12-14T14:12:36;14.55;;;12.05;;
79361;SDS011;68830;47.566;19.012;2023-12-14T14:15:38;14.93;;;11.95;;
79361;SDS011;68830;47.566;19.012;2023-12-14T14:18:41;13.05;;;11.32;;
79361;SDS011;68830;47.566;19.012;2023-12-14T14:21:44;13.95;;;10.93;;
79361;SDS011;68830;47.566;19.012;2023-12-14T14:24:47;15.65;;;11.52;;
79361;SDS011;68830;47.566;19.012;2023-12-14T14:27:49;13.75;;;11.70;;
79361;SDS011;68830;47.566;19.012;2023-12-14T14:30:51;11.60;;;10.50;;
79361;SDS011;68830;47.566;19.012;2023-12-14T14:33:53;13.93;;;10.90;;
79361;SDS011;68830;47.566;19.012;2023-12-14T14:36:57;14.40;;;11.02;;
79361;SDS011;68830;47.566;19.012;2023-12-14T14:40:00;13.25;;;11.85;;
79361;SDS011;68830;47.566;19.012;2023-12-14T14:43:02;14.80;;;10.48;;
79361;SDS011;68830;47.566;19.012;2023-12-14T14:46:05;14.93;;;10.90;;
79361;SDS011;68830;47.566;19.012;2023-12-14T14:49:07;12.45;;;11.10;;
79361;SDS011;68830;47.566;19.012;2023-12-14T14:52:11;11.38;;;10.10;;
79361;SDS011;68830;47.566;19.012;2023-12-14T14:55:13;10.43;;;9.38;;
79361;SDS011;68830;47.566;19.012;2023-12-14T14:58:15;14.15;;;10.20;;
79361;SDS011;68830;47.566;19.012;2023-12-14T15:01:17;13.85;;;10.07;;
79361;SDS011;68830;47.566;19.012;2023-12-14T15:04:20;14.35;;;10.75;;
79361;SDS011;68830;47.566;19.012;2023-12-14T15:07:24;13.07;;;11.45;;
79361;SDS011;68830;47.566;19.012;2023-12-14T15:10:27;15.82;;;12.27;;
79361;SDS011;68830;47.566;19.012;2023-12-14T15:13:29;14.45;;;12.75;;
79361;SDS011;68830;47.566;19.012;2023-12-14T15:16:31;13.98;;;12.48;;
79361;SDS011;68830;47.566;19.012;2023-12-14T15:19:34;18.35;;;14.98;;
79361;SDS011;68830;47.566;19.012;2023-12-14T15:22:37;16.40;;;14.60;;
79361;SDS011;68830;47.566;19.012;2023-12-14T15:25:39;18.38;;;16.58;;
79361;SDS011;68830;47.566;19.012;2023-12-14T15:28:42;19.02;;;17.13;;
79361;SDS011;68830;47.566;19.012;2023-12-14T15:31:44;18.98;;;15.73;;
79361;SDS011;68830;47.566;19.012;2023-12-14T15:34:46;20.17;;;17.70;;
79361;SDS011;68830;47.566;19.012;2023-12-14T15:37:52;19.08;;;17.17;;
79361;SDS011;68830;47.566;19.012;2023-12-14T15:40:54;20.77;;;18.02;;
79361;SDS011;68830;47.566;19.012;2023-12-14T15:43:56;20.27;;;17.42;;
79361;SDS011;68830;47.566;19.012;2023-12-14T15:46:59;20.90;;;16.77;;
79361;SDS011;68830;47.566;19.012;2023-12-14T15:50:02;23.38;;;18.33;;
79361;SDS011;68830;47.566;19.012;2023-12-14T15:53:08;20.67;;;18.50;;
79361;SDS011;68830;47.566;19.012;2023-12-14T15:56:12;18.83;;;16.92;;
79361;SDS011;68830;47.566;19.012;2023-12-14T15:59:14;22.30;;;17.70;;
79361;SDS011;68830;47.566;19.012;2023-12-14T16:02:16;22.02;;;19.45;;
79361;SDS011;68830;47.566;19.012;2023-12-14T16:05:18;19.20;;;17.13;;
79361;SDS011;68830;47.566;19.012;2023-12-14T16:08:22;22.27;;;18.95;;
79361;SDS011;68830;47.566;19.012;2023-12-14T16:11:24;24.52;;;19.25;;
79361;SDS011;68830;47.566;19.012;2023-12-14T16:14:26;21.00;;;18.30;;
79361;SDS011;68830;47.566;19.012;2023-12-14T16:17:28;20.75;;;17.77;;
79361;SDS011;68830;47.566;19.012;2023-12-14T16:20:31;23.45;;;19.25;;
79361;SDS011;68830;47.566;19.012;2023-12-14T16:23:35;27.20;;;21.80;;
79361;SDS011;68830;47.566;19.012;2023-12-14T16:26:38;21.23;;;18.85;;
79361;SDS011;68830;47.566;19.012;2023-12-14T16:29:45;25.35;;;18.38;;
79361;SDS011;68830;47.566;19.012;2023-12-14T16:32:47;22.38;;;19.33;;
79361;SDS011;68830;47.566;19.012;2023-12-14T16:35:49;20.05;;;16.80;;
79361;SDS011;68830;47.566;19.012;2023-12-14T16:38:53;21.02;;;17.05;;
79361;SDS011;68830;47.566;19.012;2023-12-14T16:41:55;20.48;;;17.40;;
79361;SDS011;68830;47.566;19.012;2023-12-14T16:44:58;20.55;;;16.42;;
79361;SDS011;68830;47.566;19.012;2023-12-14T16:48:00;19.88;;;16.27;;
79361;SDS011;68830;47.566;19.012;2023-12-14T16:51:04;15.75;;;13.98;;
79361;SDS011;68830;47.566;19.012;2023-12-14T16:54:09;17.20;;;15.40;;
79361;SDS011;68830;47.566;19.012;2023-12-14T16:57:11;20.25;;;15.98;;
79361;SDS011;68830;47.566;19.012;2023-12-14T17:00:14;18.00;;;15.63;;
79361;SDS011;68830;47.566;19.012;2023-12-14T17:03:17;17.33;;;13.82;;
79361;SDS011;68830;47.566;19.012;2023-12-14T17:06:19;16.93;;;13.97;;
79361;SDS011;68830;47.566;19.012;2023-12-14T17:09:24;17.00;;;13.65;;
79361;SDS011;68830;47.566;19.012;2023-12-14T17:12:29;15.57;;;13.98;;
79361;SDS011;68830;47.566;19.012;2023-12-14T17:15:31;16.73;;;14.20;;
79361;SDS011;68830;47.566;19.012;2023-12-14T17:18:35;13.90;;;12.48;;
79361;SDS011;68830;47.566;19.012;2023-12-14T17:21:37;16.08;;;13.00;;
79361;SDS011;68830;47.566;19.012;2023-12-14T17:24:41;17.98;;;13.88;;
79361;SDS011;68830;47.566;19.012;2023-12-14T17:27:42;14.75;;;13.25;;
79361;SDS011;68830;47.566;19.012;2023-12-14T17:30:45;16.80;;;12.55;;
79361;SDS011;68830;47.566;19.012;2023-12-14T17:33:47;14.32;;;12.25;;
79361;SDS011;68830;47.566;19.012;2023-12-14T17:36:50;13.90;;;12.43;;
79361;SDS011;68830;47.566;19.012;2023-12-14T17:39:54;18.23;;;13.15;;
79361;SDS011;68830;47.566;19.012;2023-12-14T17:42:57;15.90;;;12.52;;
79361;SDS011;68830;47.566;19.012;2023-12-14T17:45:59;14.80;;;12.20;;